Time;durP1;ratioP1;P1;durP2;ratioP2;P2;SDS_P1;SDS_P2;PMS_P1;PMS_P2;Temp;Humidity;BMP_temperature;BMP_pressure;BME280_temperature;BME280_humidity;BME280_pressure;Samples;Min_cycle;Max_cycle;Signal;HPM_P1;HPM_P2
2022/06/28 00:01:36;;;;;;;7.85;7.05;;;;;;;19.52;69.92;95170.63;5096565;28;20204;-75
2022/06/28 00:04:02;;;;;;;8.25;7.10;;;;;;;19.56;70.08;95177.00;5096169;28;20200;-74
2022/06/28 00:06:29;;;;;;;8.30;7.30;;;;;;;19.57;70.42;95172.19;5096212;28;20197;-74
2022/06/28 00:08:56;;;;;;;7.97;7.18;;;;;;;19.53;70.03;95177.00;5096355;28;20211;-73
2022/06/28 00:11:23;;;;;;;12.77;7.93;;;;;;;19.46;70.10;95172.25;5096120;28;20193;-74
2022/06/28 00:13:51;;;;;;;10.43;7.40;;;;;;;19.41;69.78;95175.50;5096252;28;20185;-74
2022/06/28 00:16:18;;;;;;;8.15;7.45;;;;;;;19.44;70.26;95171.88;5096254;28;20189;-75
2022/06/28 00:18:46;;;;;;;8.38;7.53;;;;;;;19.43;70.04;95164.69;5096480;28;20201;-74
2022/06/28 00:21:13;;;;;;;7.78;6.97;;;;;;;19.39;69.99;95169.50;5097184;28;20203;-74
2022/06/28 00:23:42;;;;;;;8.13;7.43;;;;;;;19.34;70.13;95172.72;5096150;28;20203;-74
2022/06/28 00:26:10;;;;;;;8.55;7.40;;;;;;;19.30;70.10;95172.75;5096368;28;20197;-74
2022/06/28 00:28:36;;;;;;;7.53;6.93;;;;;;;19.31;70.65;95173.53;5095611;28;20243;-74
2022/06/28 00:31:05;;;;;;;7.55;6.90;;;;;;;19.36;70.23;95175.94;5095798;28;20242;-74
2022/06/28 00:33:32;;;;;;;8.82;8.00;;;;;;;19.35;70.55;95182.69;5096035;28;20203;-74
2022/06/28 00:35:59;;;;;;;8.43;7.63;;;;;;;19.36;70.75;95178.72;5095545;28;20513;-74
2022/06/28 00:38:25;;;;;;;8.48;7.60;;;;;;;19.32;70.70;95173.16;5096673;28;20208;-74
2022/06/28 00:40:54;;;;;;;8.35;7.55;;;;;;;19.28;70.62;95171.53;5096076;28;20227;-74
2022/06/28 00:43:22;;;;;;;9.15;7.47;;;;;;;19.29;70.84;95175.97;5095710;28;20188;-74
2022/06/28 00:45:49;;;;;;;7.60;6.90;;;;;;;19.28;70.50;95174.34;5095452;28;20250;-74
2022/06/28 00:48:18;;;;;;;7.50;6.82;;;;;;;19.23;70.33;95167.97;5095744;28;20215;-74
2022/06/28 00:50:45;;;;;;;8.52;7.70;;;;;;;19.17;70.11;95178.00;5095445;28;20239;-74
2022/06/28 00:53:14;;;;;;;8.20;7.00;;;;;;;19.14;70.21;95178.81;5095640;28;20204;-74
2022/06/28 00:55:42;;;;;;;8.60;7.80;;;;;;;19.13;70.10;95176.41;5095508;28;20194;-74
2022/06/28 00:58:09;;;;;;;7.70;6.90;;;;;;;19.15;70.55;95182.41;5095792;28;20250;-74
2022/06/28 01:00:38;;;;;;;7.57;6.97;;;;;;;19.15;70.60;95169.22;5095340;28;20216;-76
2022/06/28 01:03:06;;;;;;;7.43;6.72;;;;;;;19.14;70.96;95173.22;5095206;28;20215;-76
2022/06/28 01:05:35;;;;;;;8.68;7.18;;;;;;;19.16;70.77;95172.81;5094676;28;20195;-75
2022/06/28 01:08:02;;;;;;;8.90;7.45;;;;;;;19.12;70.62;95175.63;5095180;28;20204;-75
2022/06/28 01:10:29;;;;;;;8.63;7.22;;;;;;;19.09;70.77;95176.41;5095553;28;20200;-75
2022/06/28 01:12:55;;;;;;;7.80;7.10;;;;;;;19.04;71.05;95176.84;5094937;28;20203;-75
2022/06/28 01:15:23;;;;;;;8.68;7.82;;;;;;;19.00;70.66;95176.06;5095025;28;20188;-75
2022/06/28 01:17:49;;;;;;;8.50;7.63;;;;;;;18.94;70.32;95163.72;5095579;28;20192;-75
2022/06/28 01:20:16;;;;;;;7.65;6.95;;;;;;;18.88;70.36;95174.53;5095014;28;20220;-75
2022/06/28 01:22:44;;;;;;;9.80;7.53;;;;;;;18.83;70.68;95162.94;5095202;28;20211;-75
2022/06/28 01:25:12;;;;;;;7.95;7.25;;;;;;;18.83;70.81;95160.16;5094942;28;20200;-75
2022/06/28 01:27:40;;;;;;;7.40;6.80;;;;;;;18.87;71.20;95167.31;5094406;28;20254;-75
2022/06/28 01:30:10;;;;;;;7.60;6.88;;;;;;;18.90;71.19;95162.94;5094976;28;20257;-75
2022/06/28 01:32:37;;;;;;;8.20;7.53;;;;;;;18.94;71.19;95167.28;5095200;28;20273;-76
2022/06/28 01:35:04;;;;;;;7.90;7.10;;;;;;;18.97;71.39;95171.28;5094952;28;20192;-76
2022/06/28 01:37:31;;;;;;;7.82;7.13;;;;;;;18.98;71.01;95168.06;5094404;28;20208;-76
2022/06/28 01:40:00;;;;;;;8.40;7.70;;;;;;;18.98;70.98;95172.88;5094585;28;20219;-75
2022/06/28 01:42:27;;;;;;;9.05;7.65;;;;;;;18.97;71.03;95174.09;5094882;28;20192;-75
2022/06/28 01:44:54;;;;;;;8.20;7.35;;;;;;;18.97;71.10;95169.28;5094825;28;20200;-75
2022/06/28 01:47:22;;;;;;;9.07;8.15;;;;;;;18.93;70.99;95173.31;5094324;28;20207;-75
2022/06/28 01:49:49;;;;;;;8.23;7.43;;;;;;;18.87;71.38;95170.13;5094677;28;20219;-75
2022/06/28 01:52:16;;;;;;;8.65;7.72;;;;;;;18.86;71.48;95165.72;5095565;28;20196;-76
2022/06/28 01:54:43;;;;;;;9.52;7.60;;;;;;;18.90;71.52;95163.72;5094766;28;20200;-76
2022/06/28 01:57:11;;;;;;;9.27;8.27;;;;;;;18.89;71.53;95162.13;5094349;28;20192;-75
2022/06/28 01:59:39;;;;;;;10.73;8.65;;;;;;;18.86;71.19;95165.72;5095007;28;20212;-76
2022/06/28 02:02:06;;;;;;;9.50;8.23;;;;;;;18.83;71.62;95157.38;5095639;28;20177;-76
2022/06/28 02:04:33;;;;;;;8.10;7.35;;;;;;;18.82;71.96;95166.94;5094615;28;20258;-75
2022/06/28 02:07:00;;;;;;;9.65;8.60;;;;;;;18.81;71.74;95165.34;5094241;28;20196;-75
2022/06/28 02:09:28;;;;;;;9.55;8.65;;;;;;;18.75;71.70;95162.97;5094529;28;20185;-75
2022/06/28 02:11:55;;;;;;;9.77;8.90;;;;;;;18.72;71.80;95160.97;5095302;28;20196;-75
2022/06/28 02:14:23;;;;;;;9.73;8.82;;;;;;;18.73;71.93;95164.56;5094493;28;20219;-75
2022/06/28 02:16:50;;;;;;;9.43;7.95;;;;;;;18.77;71.68;95173.72;5094978;28;20207;-75
2022/06/28 02:19:16;;;;;;;8.25;7.55;;;;;;;18.80;71.66;95177.72;5099327;28;20200;-75
2022/06/28 02:21:45;;;;;;;8.77;7.95;;;;;;;18.78;71.39;95168.97;5099102;28;20204;-75
2022/06/28 02:24:12;;;;;;;8.10;7.40;;;;;;;18.77;71.61;95170.94;5098554;28;20190;-75
2022/06/28 02:26:39;;;;;;;8.10;7.30;;;;;;;18.78;71.45;95172.56;5098200;28;20207;-76
2022/06/28 02:29:06;;;;;;;9.32;8.32;;;;;;;18.75;71.43;95156.59;5097959;28;20346;-75
2022/06/28 02:31:36;;;;;;;8.93;8.13;;;;;;;18.74;71.51;95166.97;5098308;28;20537;-76
2022/06/28 02:34:04;;;;;;;8.32;7.43;;;;;;;18.69;71.48;95167.34;5098472;28;20200;-75
2022/06/28 02:41:59;;;;;;;10.05;8.73;;;;;;;18.45;70.60;95176.59;5099118;28;20219;-75
2022/06/28 02:44:26;;;;;;;8.57;7.68;;;;;;;18.39;70.74;95176.19;5098347;28;20203;-75
2022/06/28 02:46:54;;;;;;;8.95;8.05;;;;;;;18.34;70.74;95176.59;5098388;28;20207;-75
2022/06/28 02:49:21;;;;;;;8.63;7.45;;;;;;;18.33;71.20;95177.78;5098130;28;20499;-75
2022/06/28 02:51:48;;;;;;;8.95;8.02;;;;;;;18.37;71.31;95172.97;5097648;28;20203;-75
2022/06/28 02:54:15;;;;;;;10.85;7.60;;;;;;;18.37;71.16;95166.59;5097773;28;20208;-75
2022/06/28 02:56:42;;;;;;;8.40;7.50;;;;;;;18.39;71.73;95167.81;5097662;28;20196;-75
2022/06/28 02:59:09;;;;;;;9.05;7.95;;;;;;;18.40;71.76;95163.81;5098758;28;20271;-75
2022/06/28 03:01:36;;;;;;;9.20;8.15;;;;;;;18.42;71.68;95161.41;5098641;28;20204;-75
2022/06/28 03:04:04;;;;;;;13.00;7.88;;;;;;;18.42;71.76;95169.00;5097640;28;20200;-75
2022/06/28 03:06:31;;;;;;;9.25;7.95;;;;;;;18.42;71.74;95167.00;5097324;28;20199;-75
2022/06/28 03:08:57;;;;;;;8.80;7.80;;;;;;;18.44;71.83;95161.00;5097533;28;20201;-75
2022/06/28 03:11:24;;;;;;;15.80;10.10;;;;;;;18.43;72.19;95160.22;5097558;28;20196;-75
2022/06/28 03:13:51;;;;;;;12.98;10.27;;;;;;;18.40;71.81;95168.59;5097782;28;20193;-75
2022/06/28 03:16:17;;;;;;;13.60;10.63;;;;;;;18.38;72.11;95168.22;5097809;28;20196;-75
2022/06/28 03:18:44;;;;;;;18.80;11.35;;;;;;;18.34;71.84;95168.22;5097141;28;20188;-75
2022/06/28 03:21:12;;;;;;;13.75;11.20;;;;;;;18.32;71.83;95167.03;5097006;28;20223;-75
2022/06/28 03:23:39;;;;;;;12.02;10.00;;;;;;;18.31;72.18;95165.44;5097343;28;20258;-75
2022/06/28 03:26:06;;;;;;;13.15;9.55;;;;;;;18.32;72.29;95162.22;5097034;28;20605;-75
2022/06/28 03:28:33;;;;;;;11.07;8.85;;;;;;;18.32;72.27;95167.03;5096662;28;20232;-75
2022/06/28 03:31:00;;;;;;;11.10;7.95;;;;;;;18.34;72.44;95167.41;5097082;28;20203;-75
2022/06/28 03:33:26;;;;;;;9.80;8.23;;;;;;;18.34;71.98;95164.59;5097066;28;20203;-75
2022/06/28 03:35:53;;;;;;;9.80;8.60;;;;;;;18.37;72.40;95155.44;5097280;28;20192;-75
2022/06/28 03:38:21;;;;;;;9.07;8.18;;;;;;;18.36;72.69;95168.59;5098613;28;20246;-75
2022/06/28 03:40:48;;;;;;;10.70;8.40;;;;;;;18.37;72.57;95174.97;5097386;28;20219;-75
2022/06/28 03:43:15;;;;;;;9.00;7.75;;;;;;;18.38;72.53;95163.44;5097044;28;20597;-75
2022/06/28 03:45:42;;;;;;;15.13;8.63;;;;;;;18.41;72.57;95173.81;5097003;28;20188;-75
2022/06/28 03:48:09;;;;;;;9.35;8.20;;;;;;;18.42;73.06;95180.97;5097069;28;20204;-75
2022/06/28 03:50:36;;;;;;;9.73;8.20;;;;;;;18.45;72.81;95176.59;5096702;28;20195;-76
2022/06/28 03:53:03;;;;;;;11.23;9.40;;;;;;;18.49;72.75;95183.75;5096907;28;20203;-75
2022/06/28 03:55:31;;;;;;;9.05;8.13;;;;;;;18.51;72.79;95188.94;5096427;28;20250;-75
2022/06/28 03:57:58;;;;;;;13.55;7.90;;;;;;;18.52;72.93;95185.75;5096575;28;20199;-75
2022/06/28 04:00:25;;;;;;;8.45;7.65;;;;;;;18.54;72.91;95190.91;5097004;28;20212;-74
2022/06/28 04:02:52;;;;;;;11.95;7.63;;;;;;;18.60;72.86;95186.53;5096601;28;20189;-74
2022/06/28 04:05:18;;;;;;;11.93;7.80;;;;;;;18.61;72.65;95195.69;5096468;28;20192;-75
2022/06/28 04:07:45;;;;;;;7.78;7.07;;;;;;;18.59;72.21;95192.50;5097051;28;20188;-75
2022/06/28 04:10:12;;;;;;;8.05;7.22;;;;;;;18.59;72.48;95200.88;5096904;28;20199;-75
2022/06/28 04:12:41;;;;;;;8.23;7.13;;;;;;;18.60;72.20;95206.09;5096943;28;20211;-72
2022/06/28 04:15:08;;;;;;;9.00;8.05;;;;;;;18.60;72.35;95219.25;5096542;28;20200;-74
2022/06/28 04:17:35;;;;;;;8.25;7.38;;;;;;;18.60;71.97;95213.66;5096399;28;20184;-74
2022/06/28 04:20:02;;;;;;;7.78;7.07;;;;;;;18.60;71.96;95208.88;5097286;28;20199;-74
2022/06/28 04:22:28;;;;;;;8.07;7.35;;;;;;;18.60;72.08;95217.25;5096455;28;20200;-73
2022/06/28 04:24:55;;;;;;;8.98;8.07;;;;;;;18.60;72.60;95219.25;5096266;28;20208;-73
2022/06/28 04:27:22;;;;;;;7.55;6.82;;;;;;;18.60;72.27;95222.84;5096792;28;20236;-73
2022/06/28 04:29:50;;;;;;;8.65;7.95;;;;;;;18.62;72.45;95212.03;5095916;28;20200;-73
2022/06/28 04:32:17;;;;;;;8.25;7.45;;;;;;;18.65;72.34;95214.03;5096486;28;20271;-73
2022/06/28 04:34:43;;;;;;;8.20;7.45;;;;;;;18.67;72.78;95208.06;5095966;28;20600;-73
2022/06/28 04:37:10;;;;;;;8.93;7.53;;;;;;;18.69;72.92;95206.44;5096253;28;20196;-73
2022/06/28 04:39:37;;;;;;;8.25;7.50;;;;;;;18.69;72.81;95200.84;5095231;28;20196;-73
2022/06/28 04:42:05;;;;;;;9.68;7.88;;;;;;;18.70;73.19;95212.84;5095587;28;20223;-73
2022/06/28 04:44:32;;;;;;;9.25;8.35;;;;;;;18.73;72.83;95218.44;5095633;28;20197;-73
2022/06/28 04:47:00;;;;;;;8.00;7.20;;;;;;;18.79;72.88;95218.06;5095592;28;20279;-72
2022/06/28 04:49:27;;;;;;;10.70;7.00;;;;;;;18.82;73.26;95218.03;5095810;28;20282;-73
2022/06/28 04:51:53;;;;;;;8.43;7.65;;;;;;;18.87;73.16;95216.81;5096207;28;20189;-73
2022/06/28 04:54:20;;;;;;;10.00;7.60;;;;;;;18.90;73.34;95224.41;5095287;28;20544;-73
2022/06/28 04:56:47;;;;;;;8.82;7.93;;;;;;;18.90;73.49;95222.41;5096652;28;20177;-73
2022/06/28 04:59:14;;;;;;;8.48;7.68;;;;;;;18.91;73.28;95217.63;5095557;28;20197;-73
2022/06/28 05:01:40;;;;;;;8.07;7.28;;;;;;;18.89;73.20;95211.66;5095389;28;20208;-73
2022/06/28 05:04:08;;;;;;;7.95;7.25;;;;;;;18.88;73.45;95204.44;5095843;28;20655;-73
2022/06/28 05:06:35;;;;;;;7.63;6.93;;;;;;;18.88;73.49;95212.81;5095320;28;20196;-72
2022/06/28 05:09:02;;;;;;;7.85;7.15;;;;;;;18.87;73.99;95211.25;5095520;28;20204;-72
2022/06/28 05:11:30;;;;;;;7.80;7.00;;;;;;;18.88;74.19;95215.63;5095357;28;20211;-73
2022/06/28 05:13:58;;;;;;;7.78;7.07;;;;;;;18.89;73.83;95217.22;5095317;28;20200;-73
2022/06/28 05:16:24;;;;;;;8.25;7.50;;;;;;;18.90;73.79;95211.22;5095446;28;20200;-73
2022/06/28 05:18:51;;;;;;;8.10;7.50;;;;;;;18.92;73.72;95213.63;5095095;28;20632;-73
2022/06/28 05:21:19;;;;;;;8.02;7.22;;;;;;;18.93;73.96;95213.22;5095635;28;20212;-73
2022/06/28 05:23:46;;;;;;;8.35;7.03;;;;;;;18.95;73.88;95210.84;5094978;28;20532;-73
2022/06/28 05:26:13;;;;;;;7.82;7.22;;;;;;;19.02;73.49;95212.78;5095455;28;20192;-72
2022/06/28 05:28:40;;;;;;;7.85;7.15;;;;;;;19.02;73.29;95207.19;5094650;28;20310;-72
2022/06/28 05:31:06;;;;;;;9.02;8.30;;;;;;;19.04;73.15;95212.41;5094801;28;20196;-73
2022/06/28 05:33:33;;;;;;;8.80;8.00;;;;;;;19.05;73.38;95208.38;5094664;28;20192;-73
2022/06/28 05:36:00;;;;;;;9.50;8.70;;;;;;;19.09;73.49;95218.34;5094768;28;20192;-73
2022/06/28 05:38:28;;;;;;;9.38;8.48;;;;;;;19.10;73.14;95211.59;5094571;28;20620;-73
2022/06/28 05:40:55;;;;;;;12.88;11.77;;;;;;;19.13;72.60;95224.72;5094868;28;20208;-73
2022/06/28 05:43:21;;;;;;;12.48;11.27;;;;;;;19.17;72.66;95216.31;5094436;28;20193;-73
2022/06/28 05:45:48;;;;;;;9.32;8.52;;;;;;;19.23;72.05;95220.31;5094404;28;20208;-73
2022/06/28 05:48:15;;;;;;;9.80;7.80;;;;;;;19.30;72.13;95213.91;5094520;28;20200;-73
2022/06/28 05:50:42;;;;;;;8.63;7.90;;;;;;;19.33;71.47;95221.47;5094776;28;20196;-73
2022/06/28 05:53:08;;;;;;;8.20;7.18;;;;;;;19.39;71.64;95214.25;5094441;28;20184;-73
2022/06/28 05:55:37;;;;;;;8.50;7.70;;;;;;;19.39;71.74;95226.25;5094597;28;20211;-73
2022/06/28 05:58:03;;;;;;;9.30;7.45;;;;;;;19.42;72.06;95227.41;5094466;28;20200;-73
2022/06/28 06:00:30;;;;;;;8.07;7.30;;;;;;;19.46;71.81;95228.19;5094501;28;20200;-73
2022/06/28 06:02:57;;;;;;;7.35;6.60;;;;;;;19.51;71.73;95235.38;5094197;28;20537;-73
2022/06/28 06:05:23;;;;;;;8.02;7.32;;;;;;;19.57;71.62;95233.75;5094348;28;20207;-73
2022/06/28 06:07:50;;;;;;;7.75;7.05;;;;;;;19.61;71.85;95224.16;5094678;28;20651;-73
2022/06/28 06:10:17;;;;;;;9.07;8.10;;;;;;;19.67;71.78;95230.13;5094317;28;20196;-73
2022/06/28 06:12:45;;;;;;;11.50;8.75;;;;;;;19.70;71.65;95232.91;5094651;28;20211;-73
2022/06/28 06:15:12;;;;;;;8.30;7.50;;;;;;;19.73;71.68;95225.69;5094074;28;20196;-73
2022/06/28 06:17:39;;;;;;;9.93;9.02;;;;;;;19.75;71.37;95217.69;5094293;28;20198;-73
2022/06/28 06:20:06;;;;;;;9.43;8.52;;;;;;;19.78;70.92;95216.06;5094522;28;20196;-73
2022/06/28 06:22:33;;;;;;;8.07;7.38;;;;;;;19.78;70.67;95216.06;5094139;28;20216;-73
2022/06/28 06:25:00;;;;;;;7.05;6.47;;;;;;;19.81;70.76;95218.06;5094134;28;20204;-73
2022/06/28 06:27:27;;;;;;;8.50;7.80;;;;;;;19.85;70.18;95221.63;5094428;28;20228;-73
2022/06/28 06:29:55;;;;;;;9.15;8.35;;;;;;;19.86;70.32;95206.41;5094034;28;20237;-73
2022/06/28 06:32:22;;;;;;;9.43;8.63;;;;;;;19.88;69.84;95215.22;5094376;28;20200;-73
2022/06/28 06:34:48;;;;;;;8.27;7.55;;;;;;;19.91;69.86;95204.00;5095160;28;20253;-73
2022/06/28 06:37:15;;;;;;;7.88;7.28;;;;;;;19.96;69.98;95199.97;5094279;28;20245;-73
2022/06/28 06:39:42;;;;;;;7.97;7.28;;;;;;;20.02;69.23;95195.53;5095072;28;20188;-73
2022/06/28 06:42:09;;;;;;;8.18;7.25;;;;;;;20.10;68.82;95201.88;5095222;28;20216;-73
2022/06/28 06:44:36;;;;;;;8.05;7.15;;;;;;;20.16;68.64;95200.22;5094575;28;20200;-73
2022/06/28 06:47:05;;;;;;;8.48;7.68;;;;;;;20.20;68.44;95198.97;5094378;28;20197;-73
2022/06/28 06:49:32;;;;;;;9.23;8.45;;;;;;;20.26;68.63;95195.72;5094043;28;20207;-73
2022/06/28 06:51:58;;;;;;;8.32;7.63;;;;;;;20.34;67.95;95186.09;5094201;28;20200;-73
2022/06/28 06:54:25;;;;;;;9.07;8.07;;;;;;;20.40;68.41;95185.19;5094374;28;20211;-73
2022/06/28 06:56:52;;;;;;;9.52;8.55;;;;;;;20.43;68.61;95183.59;5093831;28;20200;-73
2022/06/28 06:59:19;;;;;;;10.23;9.20;;;;;;;20.44;68.34;95190.78;5093863;28;20207;-73
2022/06/28 07:01:46;;;;;;;9.70;8.65;;;;;;;20.48;68.22;95179.53;5093844;28;20232;-73
2022/06/28 07:04:15;;;;;;;10.38;9.00;;;;;;;20.53;67.96;95185.53;5096516;28;20203;-73
2022/06/28 07:06:42;;;;;;;11.40;10.40;;;;;;;20.57;68.16;95177.09;5098019;28;20196;-73
2022/06/28 07:09:09;;;;;;;10.38;9.48;;;;;;;20.64;68.67;95186.22;5097719;28;20193;-73
2022/06/28 07:11:36;;;;;;;10.05;9.15;;;;;;;20.71;67.37;95184.56;5098491;28;20187;-73
2022/06/28 07:14:03;;;;;;;9.73;8.85;;;;;;;20.77;67.05;95183.69;5098095;28;20540;-72
2022/06/28 07:16:30;;;;;;;9.88;8.88;;;;;;;20.81;67.30;95178.06;5097636;28;20188;-73
2022/06/28 07:18:57;;;;;;;10.68;9.57;;;;;;;20.84;67.37;95180.81;5097555;28;20633;-73
2022/06/28 07:21:25;;;;;;;8.80;8.10;;;;;;;20.89;67.29;95177.56;5097033;28;20220;-73
2022/06/28 07:23:52;;;;;;;9.32;8.40;;;;;;;20.98;66.36;95173.44;5098217;28;20200;-73
2022/06/28 07:26:19;;;;;;;8.57;7.88;;;;;;;21.01;66.32;95173.41;5097697;28;20207;-73
2022/06/28 07:28:46;;;;;;;10.73;9.63;;;;;;;21.04;65.65;95169.78;5097216;28;20240;-73
2022/06/28 07:31:13;;;;;;;8.10;7.40;;;;;;;21.11;63.71;95174.50;5097247;28;20196;-73
2022/06/28 07:33:39;;;;;;;8.50;7.70;;;;;;;21.20;63.92;95176.78;5097233;28;20291;-73
2022/06/28 07:36:07;;;;;;;11.57;8.75;;;;;;;21.26;64.41;95178.72;5098379;28;20188;-73
2022/06/28 07:38:35;;;;;;;10.05;9.05;;;;;;;21.28;64.73;95183.91;5098042;28;20204;-73
2022/06/28 07:41:02;;;;;;;10.35;9.38;;;;;;;21.28;65.10;95179.09;5098127;28;20196;-73
2022/06/28 07:43:29;;;;;;;10.63;9.55;;;;;;;21.35;65.72;95186.66;5096961;28;20216;-72
2022/06/28 07:45:56;;;;;;;10.40;9.48;;;;;;;21.38;65.10;95183.00;5097663;28;20185;-73
2022/06/28 07:48:22;;;;;;;9.50;7.50;;;;;;;21.54;63.37;95193.66;5097904;28;20223;-73
2022/06/28 07:53:35;;;;;;;7.00;6.40;;;;;;;21.86;61.27;95187.59;5097681;28;20279;-73
2022/06/28 07:56:02;;;;;;;7.78;7.05;;;;;;;21.85;61.15;95185.97;5096854;28;20200;-73
2022/06/28 07:58:28;;;;;;;7.63;6.93;;;;;;;21.82;61.00;95179.22;5097630;28;20187;-73
2022/06/28 08:00:55;;;;;;;6.90;6.40;;;;;;;21.88;61.81;95173.91;5096804;28;20620;-73
2022/06/28 08:03:22;;;;;;;8.02;7.22;;;;;;;21.92;62.64;95171.84;5096627;28;20217;-73
2022/06/28 08:05:49;;;;;;;8.73;7.93;;;;;;;21.96;61.71;95174.59;5096320;28;20207;-72
2022/06/28 08:08:15;;;;;;;6.78;6.30;;;;;;;22.00;61.66;95176.13;5096423;28;20200;-73
2022/06/28 08:10:44;;;;;;;7.38;6.88;;;;;;;22.12;62.26;95171.94;5096199;28;20650;-73
2022/06/28 08:13:12;;;;;;;7.68;7.00;;;;;;;22.15;61.56;95159.88;5096576;28;20268;-73
2022/06/28 08:15:39;;;;;;;7.82;7.13;;;;;;;22.20;60.34;95167.81;5095045;28;20193;-73
2022/06/28 08:18:06;;;;;;;8.00;7.13;;;;;;;22.26;62.32;95159.69;5096509;28;20199;-73
2022/06/28 08:20:33;;;;;;;6.88;6.38;;;;;;;22.28;61.78;95163.66;5096343;28;20631;-73
2022/06/28 08:23:00;;;;;;;6.68;6.07;;;;;;;22.39;60.75;95157.88;5095956;28;20231;-73
2022/06/28 08:25:27;;;;;;;6.72;6.18;;;;;;;22.52;60.47;95158.06;5096104;28;20185;-73
2022/06/28 08:27:55;;;;;;;7.05;6.45;;;;;;;22.63;60.56;95158.66;5096053;28;20236;-72
2022/06/28 08:30:22;;;;;;;7.18;6.55;;;;;;;22.77;58.94;95158.41;5096136;28;20203;-73
2022/06/28 08:32:49;;;;;;;7.00;6.40;;;;;;;22.83;60.72;95165.09;5096215;28;20204;-73
2022/06/28 08:35:16;;;;;;;6.30;5.70;;;;;;;22.89;58.44;95162.59;5095819;28;20200;-73
2022/06/28 08:37:44;;;;;;;6.28;5.88;;;;;;;22.99;59.56;95167.25;5096143;28;20195;-73
2022/06/28 08:40:12;;;;;;;6.70;6.20;;;;;;;23.05;57.63;95157.06;5096308;28;20200;-73
2022/06/28 08:42:47;;;;;;;6.18;5.72;;;;;;;23.04;57.71;95158.31;5095959;28;20215;-73
2022/06/28 08:45:16;;;;;;;6.28;5.57;;;;;;;23.27;57.22;95165.88;5095790;28;20201;-73
2022/06/28 08:47:46;;;;;;;6.82;6.20;;;;;;;23.46;55.39;95164.28;5095479;28;20200;-73
2022/06/28 08:50:16;;;;;;;7.93;7.13;;;;;;;23.52;57.17;95153.31;5095817;28;20209;-73
2022/06/28 08:52:44;;;;;;;7.15;6.10;;;;;;;23.67;56.68;95160.22;5095707;28;20196;-73
2022/06/28 08:55:11;;;;;;;6.57;6.07;;;;;;;23.67;56.45;95160.22;5095782;28;20192;-73
2022/06/28 08:57:38;;;;;;;6.43;5.80;;;;;;;23.58;57.37;95162.03;5095540;28;20203;-73
2022/06/28 09:00:07;;;;;;;6.72;6.22;;;;;;;23.69;58.27;95157.78;5096214;28;20184;-72
2022/06/28 09:02:35;;;;;;;6.50;5.90;;;;;;;23.72;56.67;95164.56;5096370;28;20212;-73
2022/06/28 09:05:02;;;;;;;6.53;5.90;;;;;;;23.81;54.99;95164.75;5096467;28;20196;-73
2022/06/28 09:07:30;;;;;;;5.88;5.38;;;;;;;23.86;55.54;95160.66;5096327;28;20204;-73
2022/06/28 09:09:57;;;;;;;5.63;5.20;;;;;;;23.92;56.07;95162.47;5096271;28;20491;-73
2022/06/28 09:12:24;;;;;;;5.82;5.32;;;;;;;23.92;55.27;95156.84;5096173;28;20188;-73
2022/06/28 09:14:51;;;;;;;5.75;5.28;;;;;;;23.89;55.92;95159.75;5095959;28;20184;-73
2022/06/28 09:17:21;;;;;;;5.93;5.43;;;;;;;23.86;54.85;95160.66;5096086;28;20204;-73
2022/06/28 09:19:50;;;;;;;5.80;5.40;;;;;;;23.87;55.01;95153.78;5096107;28;20188;-73
2022/06/28 09:22:32;;;;;;;6.57;5.97;;;;;;;23.92;56.73;95153.25;5095179;28;20224;-73
2022/06/28 09:24:59;;;;;;;7.22;6.18;;;;;;;23.93;55.11;95154.81;5095993;28;20203;-73
2022/06/28 09:27:31;;;;;;;6.20;5.60;;;;;;;23.82;54.94;95151.47;5094444;28;20240;-72
2022/06/28 09:29:58;;;;;;;6.55;5.90;;;;;;;23.76;57.64;95154.81;5094902;28;20203;-73
2022/06/28 09:32:30;;;;;;;6.18;5.68;;;;;;;24.06;55.95;95149.31;5095136;28;20192;-73
2022/06/28 09:34:59;;;;;;;6.43;5.57;;;;;;;24.29;55.68;95148.34;5095961;28;20185;-73
2022/06/28 09:37:42;;;;;;;6.38;5.78;;;;;;;24.35;53.19;95155.03;5094985;28;20539;-73
2022/06/28 09:40:11;;;;;;;6.15;5.65;;;;;;;24.38;54.61;95146.50;5095047;28;20265;-73
2022/06/28 09:42:37;;;;;;;5.88;5.38;;;;;;;24.45;53.37;95149.16;5094570;28;20216;-73
2022/06/28 09:45:05;;;;;;;5.82;5.32;;;;;;;24.33;51.94;95138.59;5094537;28;20200;-73
2022/06/28 09:47:32;;;;;;;6.22;5.72;;;;;;;24.19;53.50;95142.53;5094749;28;20208;-73
2022/06/28 09:50:00;;;;;;;7.45;6.75;;;;;;;24.16;55.09;95139.81;5094688;28;20192;-73
2022/06/28 09:52:29;;;;;;;6.25;5.70;;;;;;;24.47;55.00;95135.44;5095190;28;20197;-73
2022/06/28 09:54:58;;;;;;;6.43;5.65;;;;;;;24.43;52.81;95128.28;5094632;28;20250;-73
2022/06/28 09:57:26;;;;;;;5.72;5.32;;;;;;;24.33;54.05;95132.94;5094608;28;20254;-73
2022/06/28 09:59:54;;;;;;;5.57;5.18;;;;;;;24.34;55.32;95128.09;5094474;28;20195;-73
2022/06/28 10:02:21;;;;;;;6.05;5.40;;;;;;;24.46;57.35;95133.03;5094663;28;20212;-72
2022/06/28 10:04:47;;;;;;;6.03;5.53;;;;;;;24.50;54.27;95125.28;5094184;28;20636;-73
2022/06/28 10:07:16;;;;;;;5.95;5.45;;;;;;;24.62;53.27;95133.03;5094424;28;20211;-73
2022/06/28 10:09:42;;;;;;;4.95;4.63;;;;;;;24.73;51.47;95130.72;5094283;28;20208;-73
2022/06/28 10:15:04;;;;;;;5.45;5.05;;;;;;;25.06;52.66;95127.81;5095110;28;20188;-73
2022/06/28 10:17:44;;;;;;;6.00;5.50;;;;;;;25.14;52.54;95123.56;5094637;28;20200;-73
2022/06/28 10:20:13;;;;;;;6.15;5.65;;;;;;;25.14;51.63;95120.75;5094338;28;20525;-73
2022/06/28 10:22:41;;;;;;;6.50;5.78;;;;;;;25.19;54.33;95119.41;5094494;28;20243;-73
2022/06/28 10:25:15;;;;;;;5.80;5.40;;;;;;;25.28;54.63;95113.91;5094028;28;20200;-73
2022/06/28 10:27:45;;;;;;;5.97;5.47;;;;;;;25.23;49.84;95110.81;5093957;28;20239;-73
2022/06/28 10:30:24;;;;;;;6.13;4.85;;;;;;;25.04;50.29;95110.53;5094215;28;20196;-73
2022/06/28 10:32:52;;;;;;;6.57;5.68;;;;;;;24.91;50.03;95118.13;5094388;28;20597;-73
2022/06/28 10:35:53;;;;;;;7.35;6.68;;;;;;;24.80;51.62;95114.81;5093830;28;20195;-73
2022/06/28 10:38:21;;;;;;;6.20;5.70;;;;;;;24.76;52.26;95117.72;5017365;28;20300;-73
2022/06/28 10:40:49;;;;;;;7.40;6.68;;;;;;;24.94;54.92;95111.59;5020711;28;20208;-73
2022/06/28 10:43:18;;;;;;;5.85;5.45;;;;;;;25.05;52.00;95100.81;5020431;28;20232;-73
2022/06/28 10:46:06;;;;;;;5.80;5.30;;;;;;;24.97;50.49;95100.22;5020284;28;20210;-73
2022/06/28 10:49:06;;;;;;;5.80;5.30;;;;;;;24.80;52.04;95106.34;5016016;28;20272;-73
2022/06/28 10:51:33;;;;;;;5.50;5.10;;;;;;;24.69;51.48;95098.19;5020164;28;20321;-73
2022/06/28 10:54:04;;;;;;;6.47;5.88;;;;;;;24.65;50.71;95100.31;5020497;28;20194;-73
2022/06/28 10:56:32;;;;;;;6.63;6.03;;;;;;;24.74;51.71;95090.00;5020332;28;20301;-73
2022/06/28 10:59:00;;;;;;;5.78;5.28;;;;;;;24.90;52.77;95091.16;5020229;28;20214;-73
2022/06/28 11:01:57;;;;;;;6.47;5.63;;;;;;;25.12;50.76;95095.00;5020095;28;20195;-73
2022/06/28 11:04:29;;;;;;;5.93;5.28;;;;;;;25.04;49.91;95078.69;5020495;28;20210;-73
2022/06/28 11:06:59;;;;;;;5.88;5.47;;;;;;;25.01;49.90;95069.09;5020050;28;20202;-73
2022/06/28 11:09:35;;;;;;;5.75;5.35;;;;;;;24.99;52.16;95065.94;5063966;28;20241;-73
2022/06/28 11:12:10;;;;;;;6.63;6.10;;;;;;;25.07;52.81;95072.94;5098228;28;20196;-73
2022/06/28 11:14:47;;;;;;;5.85;5.45;;;;;;;25.14;50.98;95069.16;5097839;28;20199;-73
2022/06/28 11:17:15;;;;;;;6.15;5.65;;;;;;;25.25;51.08;95069.63;5097264;28;20192;-73
2022/06/28 11:19:50;;;;;;;5.75;5.25;;;;;;;25.35;51.79;95071.34;5097322;28;20642;-73
2022/06/28 11:22:18;;;;;;;5.90;5.40;;;;;;;25.27;50.07;95069.16;5097449;28;20188;-73
2022/06/28 11:24:47;;;;;;;5.47;4.97;;;;;;;25.19;49.28;95074.25;5097773;28;20196;-73
2022/06/28 11:27:24;;;;;;;5.90;5.35;;;;;;;25.29;53.15;95084.44;5097017;28;20207;-73
2022/06/28 11:29:54;;;;;;;5.90;5.40;;;;;;;25.53;51.53;95081.28;5097567;28;20242;-73
2022/06/28 11:32:24;;;;;;;5.57;5.18;;;;;;;25.64;49.55;95064.81;5097394;28;20257;-73
2022/06/28 11:34:55;;;;;;;5.28;4.88;;;;;;;25.69;48.64;95072.72;5097503;28;20203;-73
2022/06/28 11:37:23;;;;;;;6.10;5.50;;;;;;;25.75;51.37;95073.75;5096944;28;20196;-73
2022/06/28 11:39:56;;;;;;;5.07;4.50;;;;;;;25.89;47.59;95076.16;5097823;28;20262;-73
2022/06/28 11:42:23;;;;;;;5.45;5.05;;;;;;;25.73;47.06;95081.09;5096794;28;20192;-73
2022/06/28 11:44:51;;;;;;;4.78;4.47;;;;;;;25.53;47.88;95084.09;5096935;28;20196;-73
2022/06/28 11:47:19;;;;;;;5.15;4.75;;;;;;;25.37;47.63;95088.59;5097013;28;20197;-73